Time;durP1;ratioP1;P1;durP2;ratioP2;P2;SDS_P1;SDS_P2;PMS_P1;PMS_P2;Temp;Humidity;BMP_temperature;BMP_pressure;BME280_temperature;BME280_humidity;BME280_pressure;Samples;Min_cycle;Max_cycle;Signal;HPM_P1;HPM_P2
2022/07/12 00:00:29;;;;;;;;;;;22.50;59.50;;;;;;5077218;28;20247;-74
2022/07/12 00:02:55;;;;;;;;;;;22.50;59.50;;;;;;5076873;28;19963;-74
2022/07/12 00:05:20;;;;;;;;;;;22.50;59.50;;;;;;5076742;28;19916;-74
2022/07/12 00:07:46;;;;;;;;;;;22.60;59.60;;;;;;5076886;28;19912;-74
2022/07/12 00:10:12;;;;;;;;;;;22.50;59.50;;;;;;5076729;28;19909;-73
2022/07/12 00:12:38;;;;;;;;;;;22.50;59.50;;;;;;5077010;28;19960;-74
2022/07/12 00:15:04;;;;;;;;;;;22.60;59.60;;;;;;5076774;28;19916;-74
2022/07/12 00:17:29;;;;;;;;;;;22.50;59.50;;;;;;5058610;28;19916;-74
2022/07/12 00:19:55;;;;;;;;;;;22.50;59.50;;;;;;5058884;28;20354;-75
2022/07/12 00:22:22;;;;;;;;;;;22.50;59.50;;;;;;5076529;28;19916;-74
2022/07/12 00:24:48;;;;;;;;;;;22.50;59.50;;;;;;5075446;28;19915;-74
2022/07/12 00:27:13;;;;;;;;;;;22.50;59.60;;;;;;5076417;28;19963;-73
2022/07/12 00:29:39;;;;;;;;;;;22.50;59.50;;;;;;5076508;28;19970;-74
2022/07/12 00:32:04;;;;;;;;;;;22.50;59.60;;;;;;5076207;28;19962;-74
2022/07/12 00:34:30;;;;;;;;;;;22.50;59.60;;;;;;5076276;28;19962;-74
2022/07/12 00:36:56;;;;;;;;;;;22.50;59.60;;;;;;5076096;28;19909;-74
2022/07/12 00:39:21;;;;;;;;;;;22.50;59.70;;;;;;5075958;28;20015;-75
2022/07/12 00:41:50;;;;;;;;;;;22.50;59.60;;;;;;5058191;28;19955;-74
2022/07/12 00:44:15;;;;;;;;;;;22.50;59.60;;;;;;5076024;28;19909;-74
2022/07/12 00:46:42;;;;;;;;;;;22.50;59.60;;;;;;5057611;28;19974;-75
2022/07/12 00:49:07;;;;;;;;;;;22.40;59.60;;;;;;5075456;28;19955;-74
2022/07/12 00:51:33;;;;;;;;;;;22.40;59.70;;;;;;5075824;28;20359;-74
2022/07/12 00:53:59;;;;;;;;;;;22.40;59.70;;;;;;5076432;28;19967;-72
2022/07/12 00:56:25;;;;;;;;;;;22.40;59.70;;;;;;5058330;28;19932;-73
2022/07/12 00:58:50;;;;;;;;;;;22.40;60.30;;;;;;5058217;28;19908;-74
2022/07/12 01:01:16;;;;;;;;;;;22.40;59.70;;;;;;5068108;28;19958;-74
2022/07/12 01:03:42;;;;;;;;;;;22.40;59.80;;;;;;5049171;28;20334;-74
2022/07/12 01:06:07;;;;;;;;;;;22.40;59.70;;;;;;5049832;28;19950;-75
2022/07/12 01:08:33;;;;;;;;;;;22.30;59.70;;;;;;5066903;28;20023;-75
2022/07/12 01:10:59;;;;;;;;;;;22.30;59.80;;;;;;5064980;28;19916;-74
2022/07/12 01:13:25;;;;;;;;;;;22.40;59.90;;;;;;5045774;28;20011;-77
2022/07/12 01:15:52;;;;;;;;;;;22.30;59.80;;;;;;5063727;28;19909;-73
2022/07/12 01:18:18;;;;;;;;;;;22.30;59.80;;;;;;5047273;28;19915;-73
2022/07/12 01:20:44;;;;;;;;;;;22.40;59.90;;;;;;5064688;28;19908;-74
2022/07/12 01:23:11;;;;;;;;;;;22.30;59.80;;;;;;5062092;28;19912;-74
2022/07/12 01:25:36;;;;;;;;;;;22.40;59.90;;;;;;5064268;28;19962;-76
2022/07/12 01:28:02;;;;;;;;;;;22.30;59.80;;;;;;5062920;28;19920;-75
2022/07/12 01:30:27;;;;;;;;;;;22.30;59.90;;;;;;5065612;28;19962;-74
2022/07/12 01:32:53;;;;;;;;;;;22.30;59.80;;;;;;5063848;28;19999;-74
2022/07/12 01:35:20;;;;;;;;;;;22.30;59.80;;;;;;5061758;28;19913;-75
2022/07/12 01:37:46;;;;;;;;;;;22.30;59.90;;;;;;5054555;28;19909;-72
2022/07/12 01:40:13;;;;;;;;;;;22.30;59.90;;;;;;5055379;28;19975;-74
2022/07/12 01:42:39;;;;;;;;;;;22.30;60.00;;;;;;5064090;28;19920;-74
2022/07/12 01:45:06;;;;;;;;;;;22.20;60.00;;;;;;5065212;28;20017;-76
2022/07/12 01:47:32;;;;;;;;;;;22.30;60.10;;;;;;5049691;28;20355;-72
2022/07/12 01:49:58;;;;;;;;;;;22.20;60.00;;;;;;5056656;28;19921;-73
2022/07/12 01:52:24;;;;;;;;;;;22.30;60.00;;;;;;5073926;28;19908;-73
2022/07/12 01:54:50;;;;;;;;;;;22.30;60.00;;;;;;5056234;28;19912;-72
2022/07/12 01:57:15;;;;;;;;;;;22.30;60.00;;;;;;5073785;28;19919;-73
2022/07/12 01:59:41;;;;;;;;;;;22.20;60.00;;;;;;5055913;28;19974;-73
2022/07/12 02:02:07;;;;;;;;;;;22.30;60.00;;;;;;5056240;28;19995;-73
2022/07/12 02:04:33;;;;;;;;;;;22.30;60.00;;;;;;5074613;28;19909;-73
2022/07/12 02:07:00;;;;;;;;;;;22.30;59.90;;;;;;5072701;28;20054;-74
2022/07/12 02:09:25;;;;;;;;;;;22.30;59.90;;;;;;5074324;28;19912;-73
2022/07/12 02:11:51;;;;;;;;;;;22.30;59.80;;;;;;5073503;28;19942;-75
2022/07/12 02:14:16;;;;;;;;;;;22.20;59.80;;;;;;5073460;28;19934;-74
2022/07/12 02:16:42;;;;;;;;;;;22.20;59.90;;;;;;5056069;28;20274;-74
2022/07/12 02:19:09;;;;;;;;;;;21.20;59.40;;;;;;5074362;28;20271;-74
2022/07/12 02:21:34;;;;;;;;;;;22.20;59.90;;;;;;5072897;28;19908;-74
2022/07/12 02:24:00;;;;;;;;;;;22.20;59.90;;;;;;5074288;28;20362;-73
2022/07/12 02:26:26;;;;;;;;;;;22.20;59.80;;;;;;5074138;28;20278;-73
2022/07/12 02:28:52;;;;;;;;;;;22.20;59.80;;;;;;5074017;28;19920;-73
2022/07/12 02:31:17;;;;;;;;;;;22.20;59.80;;;;;;5074041;28;19908;-73
2022/07/12 02:33:43;;;;;;;;;;;22.20;59.90;;;;;;5073869;28;19915;-73
2022/07/12 02:36:08;;;;;;;;;;;22.20;59.80;;;;;;5074486;28;20270;-73
2022/07/12 02:38:34;;;;;;;;;;;22.20;59.60;;;;;;5074180;28;19974;-73
2022/07/12 02:40:59;;;;;;;;;;;22.20;59.50;;;;;;5056446;28;19908;-73
2022/07/12 02:43:26;;;;;;;;;;;22.20;59.50;;;;;;5074419;28;19963;-73
2022/07/12 02:45:52;;;;;;;;;;;22.20;59.40;;;;;;5074336;28;19916;-73
2022/07/12 02:48:18;;;;;;;;;;;22.20;59.30;;;;;;5073041;28;19916;-73
2022/07/12 02:50:43;;;;;;;;;;;22.20;59.20;;;;;;5073979;28;19908;-74
2022/07/12 02:53:09;;;;;;;;;;;22.10;59.30;;;;;;5074075;28;20001;-73
2022/07/12 02:55:35;;;;;;;;;;;22.10;59.40;;;;;;5074032;28;20355;-73
2022/07/12 02:58:01;;;;;;;;;;;22.10;59.30;;;;;;5073771;28;19978;-74
2022/07/12 03:00:27;;;;;;;;;;;22.20;59.50;;;;;;5074050;28;20260;-73
2022/07/12 03:02:53;;;;;;;;;;;22.20;59.50;;;;;;5073569;28;19909;-73
2022/07/12 03:05:18;;;;;;;;;;;22.20;59.50;;;;;;5073913;28;19912;-74
2022/07/12 03:07:44;;;;;;;;;;;22.30;59.50;;;;;;5073742;28;19919;-74
2022/07/12 03:10:10;;;;;;;;;;;22.30;59.50;;;;;;5073735;28;20412;-73
2022/07/12 03:12:36;;;;;;;;;;;22.30;59.50;;;;;;5055757;28;19958;-74
2022/07/12 03:15:02;;;;;;;;;;;22.40;59.30;;;;;;5056058;28;19948;-74
2022/07/12 03:17:27;;;;;;;;;;;22.40;59.10;;;;;;5073458;28;19908;-74
2022/07/12 03:19:53;;;;;;;;;;;22.40;59.10;;;;;;5073680;28;20266;-73
2022/07/12 03:22:18;;;;;;;;;;;22.40;59.60;;;;;;5074302;28;19913;-73
2022/07/12 03:24:44;;;;;;;;;;;22.40;58.80;;;;;;5073490;28;19917;-74
2022/07/12 03:27:09;;;;;;;;;;;22.40;58.90;;;;;;5073639;28;19966;-73
2022/07/12 03:29:35;;;;;;;;;;;22.40;58.80;;;;;;5073669;28;20002;-74
2022/07/12 03:32:01;;;;;;;;;;;22.40;58.80;;;;;;5073377;28;19909;-74
2022/07/12 03:34:26;;;;;;;;;;;22.40;59.40;;;;;;5073834;28;19908;-73
2022/07/12 03:36:52;;;;;;;;;;;22.50;58.80;;;;;;5073402;28;20362;-73
2022/07/12 03:39:17;;;;;;;;;;;22.50;58.90;;;;;;5043935;28;19920;-73
2022/07/12 03:41:43;;;;;;;;;;;22.50;58.80;;;;;;5053634;28;19995;-73
2022/07/12 03:44:08;;;;;;;;;;;22.50;58.70;;;;;;5053310;28;19948;-73
2022/07/12 03:46:34;;;;;;;;;;;22.60;58.70;;;;;;5052994;28;20011;-74
2022/07/12 03:49:00;;;;;;;;;;;22.60;58.60;;;;;;5053344;28;19917;-73
2022/07/12 03:51:25;;;;;;;;;;;22.60;58.40;;;;;;5053484;28;20323;-74
2022/07/12 03:53:51;;;;;;;;;;;22.60;58.20;;;;;;5053330;28;20000;-73
2022/07/12 03:59:00;;;;;;;;;;;22.60;58.30;;;;;;5054519;28;19951;-73
2022/07/12 04:01:26;;;;;;;;;;;22.60;58.30;;;;;;5057151;28;19944;-75
2022/07/12 04:03:52;;;;;;;;;;;22.60;58.30;;;;;;5057041;28;19909;-74
2022/07/12 04:06:17;;;;;;;;;;;22.60;58.40;;;;;;5056756;28;20027;-74
2022/07/12 04:08:43;;;;;;;;;;;22.60;58.40;;;;;;5038852;28;19919;-74
2022/07/12 04:11:08;;;;;;;;;;;22.60;58.30;;;;;;5056910;28;19916;-74
2022/07/12 04:13:34;;;;;;;;;;;22.60;58.20;;;;;;5038586;28;19909;-73
2022/07/12 04:16:00;;;;;;;;;;;22.60;57.80;;;;;;5056626;28;19908;-73
2022/07/12 04:18:25;;;;;;;;;;;22.60;58.10;;;;;;5056572;28;19909;-73
2022/07/12 04:20:51;;;;;;;;;;;22.60;58.00;;;;;;5056672;28;19916;-73
2022/07/12 04:23:16;;;;;;;;;;;22.70;58.10;;;;;;5056509;28;19916;-73
2022/07/12 04:25:42;;;;;;;;;;;22.60;57.90;;;;;;5038516;28;19923;-72
2022/07/12 04:28:07;;;;;;;;;;;22.70;57.90;;;;;;5056150;28;19958;-75
2022/07/12 04:30:33;;;;;;;;;;;22.70;57.90;;;;;;5056572;28;19908;-73
2022/07/12 04:32:58;;;;;;;;;;;22.70;57.80;;;;;;5056271;28;19913;-73
2022/07/12 04:35:24;;;;;;;;;;;22.70;57.90;;;;;;5056044;28;20265;-72
2022/07/12 04:37:49;;;;;;;;;;;22.70;57.80;;;;;;5056174;28;20406;-73
2022/07/12 04:40:15;;;;;;;;;;;22.70;57.80;;;;;;5075328;28;20337;-73
2022/07/12 04:42:40;;;;;;;;;;;22.70;57.60;;;;;;5076275;28;20252;-73
2022/07/12 04:45:06;;;;;;;;;;;22.70;57.50;;;;;;5076123;28;20007;-73
2022/07/12 04:47:34;;;;;;;;;;;22.80;57.70;;;;;;5076055;28;20362;-74
2022/07/12 04:50:02;;;;;;;;;;;22.80;57.50;;;;;;5075871;28;19913;-73
2022/07/12 04:52:28;;;;;;;;;;;22.80;57.40;;;;;;5075637;28;19991;-73
2022/07/12 04:54:53;;;;;;;;;;;22.80;57.40;;;;;;5075684;28;19947;-74
2022/07/12 04:57:19;;;;;;;;;;;22.80;57.30;;;;;;5075546;28;19912;-74
2022/07/12 04:59:44;;;;;;;;;;;22.80;57.10;;;;;;5075630;28;20438;-73
2022/07/12 05:02:10;;;;;;;;;;;22.80;56.90;;;;;;5075836;28;20065;-73
2022/07/12 05:04:35;;;;;;;;;;;22.80;57.00;;;;;;5075493;28;20290;-74
2022/07/12 05:07:01;;;;;;;;;;;22.80;57.00;;;;;;5075334;28;19920;-73
2022/07/12 05:09:27;;;;;;;;;;;22.80;57.10;;;;;;5075612;28;19913;-74
2022/07/12 05:11:52;;;;;;;;;;;22.80;56.80;;;;;;5075048;28;19916;-73
2022/07/12 05:14:17;;;;;;;;;;;22.80;57.00;;;;;;5075201;28;19928;-74
2022/07/12 05:16:43;;;;;;;;;;;22.90;57.00;;;;;;5057944;28;20405;-74
2022/07/12 05:19:09;;;;;;;;;;;22.90;57.00;;;;;;5075613;28;19916;-73
2022/07/12 05:21:34;;;;;;;;;;;22.90;56.90;;;;;;5057867;28;19951;-74
2022/07/12 05:24:02;;;;;;;;;;;22.90;56.90;;;;;;5075205;28;20356;-73
2022/07/12 05:26:28;;;;;;;;;;;23.00;57.00;;;;;;5057116;28;19935;-74
2022/07/12 05:28:54;;;;;;;;;;;23.00;56.70;;;;;;5057371;28;19913;-73
2022/07/12 05:31:20;;;;;;;;;;;23.00;56.60;;;;;;5075448;28;19916;-74
2022/07/12 05:33:46;;;;;;;;;;;23.00;56.50;;;;;;5057255;28;19908;-74
2022/07/12 05:36:11;;;;;;;;;;;23.00;56.50;;;;;;5075005;28;19909;-74
2022/07/12 05:38:37;;;;;;;;;;;23.00;56.50;;;;;;5075075;28;20262;-74
2022/07/12 05:41:02;;;;;;;;;;;23.00;56.50;;;;;;5074658;28;19916;-74
2022/07/12 05:43:28;;;;;;;;;;;23.00;56.50;;;;;;5057499;28;19955;-74
2022/07/12 05:45:53;;;;;;;;;;;23.00;56.60;;;;;;5057103;28;19923;-74
2022/07/12 05:48:19;;;;;;;;;;;23.00;56.60;;;;;;5075033;28;19920;-74
2022/07/12 05:50:44;;;;;;;;;;;23.10;56.60;;;;;;5074570;28;19916;-74
2022/07/12 05:53:22;;;;;;;;;;;23.10;56.50;;;;;;5074574;28;19915;-74
2022/07/12 05:55:51;;;;;;;;;;;23.10;56.30;;;;;;5074512;28;19909;-73
2022/07/12 05:58:17;;;;;;;;;;;23.20;56.30;;;;;;5056553;28;19908;-73
2022/07/12 06:00:43;;;;;;;;;;;23.20;56.30;;;;;;5074359;28;19913;-73
2022/07/12 06:03:08;;;;;;;;;;;23.20;56.10;;;;;;5074500;28;20385;-73
2022/07/12 06:05:34;;;;;;;;;;;23.20;56.00;;;;;;5074616;28;19909;-73
2022/07/12 06:08:00;;;;;;;;;;;23.20;56.00;;;;;;5074645;28;19966;-73
2022/07/12 06:10:25;;;;;;;;;;;23.20;56.10;;;;;;5056245;28;19916;-74
2022/07/12 06:12:51;;;;;;;;;;;23.30;56.20;;;;;;5074593;28;20003;-74
2022/07/12 06:15:16;;;;;;;;;;;23.30;56.30;;;;;;5074648;28;20003;-74
2022/07/12 06:17:42;;;;;;;;;;;23.30;56.20;;;;;;5056494;28;19912;-74
2022/07/12 06:20:08;;;;;;;;;;;23.40;56.10;;;;;;5074463;28;19912;-74
2022/07/12 06:22:34;;;;;;;;;;;23.40;56.10;;;;;;5073282;28;20007;-75
2022/07/12 06:24:59;;;;;;;;;;;23.40;55.30;;;;;;5073918;28;20022;-72
2022/07/12 06:27:25;;;;;;;;;;;23.40;55.90;;;;;;5074853;28;20331;-73
2022/07/12 06:29:51;;;;;;;;;;;23.50;56.00;;;;;;5074585;28;19916;-74
2022/07/12 06:32:17;;;;;;;;;;;23.50;56.00;;;;;;5074112;28;20010;-74
2022/07/12 06:34:43;;;;;;;;;;;23.50;55.30;;;;;;5074360;28;19913;-74
2022/07/12 06:37:08;;;;;;;;;;;23.50;55.80;;;;;;5074250;28;19915;-74
2022/07/12 06:39:37;;;;;;;;;;;23.50;55.50;;;;;;5074118;28;19920;-75
2022/07/12 06:42:05;;;;;;;;;;;23.50;55.70;;;;;;5056336;28;19909;-74
2022/07/12 06:44:31;;;;;;;;;;;23.60;55.30;;;;;;5074051;28;20358;-73
2022/07/12 06:46:57;;;;;;;;;;;23.60;55.60;;;;;;5073701;28;19916;-73
2022/07/12 06:49:23;;;;;;;;;;;23.60;55.60;;;;;;5073806;28;19912;-73
2022/07/12 06:51:48;;;;;;;;;;;23.70;55.40;;;;;;5073741;28;20003;-73
2022/07/12 06:54:14;;;;;;;;;;;23.70;55.10;;;;;;5056105;28;19912;-73
2022/07/12 06:56:39;;;;;;;;;;;23.70;55.40;;;;;;5055809;28;19913;-73
2022/07/12 06:59:05;;;;;;;;;;;23.70;55.00;;;;;;5073669;28;19909;-74
2022/07/12 07:01:30;;;;;;;;;;;23.70;54.90;;;;;;5073997;28;20006;-73
2022/07/12 07:03:56;;;;;;;;;;;23.70;55.10;;;;;;5073789;28;20012;-73
2022/07/12 07:06:21;;;;;;;;;;;23.70;54.60;;;;;;5073718;28;20247;-73
2022/07/12 07:08:47;;;;;;;;;;;23.70;54.80;;;;;;5073915;28;20396;-74
2022/07/12 07:11:13;;;;;;;;;;;23.70;54.60;;;;;;5073837;28;19912;-74
2022/07/12 07:13:38;;;;;;;;;;;23.70;54.50;;;;;;5074192;28;19916;-73
2022/07/12 07:16:05;;;;;;;;;;;23.70;54.40;;;;;;5074300;28;19915;-73
2022/07/12 07:18:30;;;;;;;;;;;23.70;54.20;;;;;;5073874;28;19908;-73
2022/07/12 07:20:56;;;;;;;;;;;23.70;54.30;;;;;;5073733;28;20262;-73
2022/07/12 07:23:21;;;;;;;;;;;23.70;53.90;;;;;;5073282;28;20449;-73
2022/07/12 07:25:47;;;;;;;;;;;23.70;53.80;;;;;;5073756;28;20321;-73
2022/07/12 07:28:13;;;;;;;;;;;23.70;54.00;;;;;;5073972;28;19912;-73
2022/07/12 07:30:54;;;;;;;;;;;23.80;54.10;;;;;;5073653;28;19912;-73
2022/07/12 07:33:23;;;;;;;;;;;23.80;52.70;;;;;;5055569;28;19913;-73
2022/07/12 07:35:49;;;;;;;;;;;23.80;53.40;;;;;;5077036;28;19908;-74
2022/07/12 07:38:15;;;;;;;;;;;23.80;53.20;;;;;;5077611;28;19928;-74
2022/07/12 07:40:41;;;;;;;;;;;23.80;53.00;;;;;;5059889;28;19999;-73
2022/07/12 07:43:06;;;;;;;;;;;23.80;52.90;;;;;;5059108;28;20365;-73
2022/07/12 07:45:32;;;;;;;;;;;23.90;53.10;;;;;;5059254;28;19916;-73
2022/07/12 07:47:57;;;;;;;;;;;23.90;52.90;;;;;;5077169;28;20359;-73
2022/07/12 07:50:23;;;;;;;;;;;23.90;52.40;;;;;;5077635;28;19915;-74
2022/07/12 07:52:49;;;;;;;;;;;23.90;52.10;;;;;;5077189;28;20382;-73
2022/07/12 07:55:15;;;;;;;;;;;23.90;52.50;;;;;;5076921;28;19916;-74
2022/07/12 07:57:41;;;;;;;;;;;23.90;52.70;;;;;;5059081;28;19908;-74
2022/07/12 08:00:06;;;;;;;;;;;24.00;51.40;;;;;;5076879;28;19955;-74
2022/07/12 08:02:32;;;;;;;;;;;24.00;52.10;;;;;;5076881;28;19908;-74
2022/07/12 08:04:58;;;;;;;;;;;24.10;52.40;;;;;;5076586;28;19979;-74
2022/07/12 08:07:23;;;;;;;;;;;24.10;51.60;;;;;;5059006;28;19935;-73
2022/07/12 08:09:49;;;;;;;;;;;24.20;52.00;;;;;;5059029;28;19962;-73
2022/07/12 08:12:14;;;;;;;;;;;24.30;51.00;;;;;;5076774;28;19935;-73
2022/07/12 08:14:40;;;;;;;;;;;24.40;51.90;;;;;;5058710;28;19935;-74
2022/07/12 08:17:06;;;;;;;;;;;24.40;51.00;;;;;;5058504;28;19913;-74
2022/07/12 08:19:31;;;;;;;;;;;24.50;50.80;;;;;;5076374;28;19912;-74
2022/07/12 08:21:57;;;;;;;;;;;24.60;50.90;;;;;;5076617;28;20027;-73
2022/07/12 08:24:22;;;;;;;;;;;24.60;50.60;;;;;;5076532;28;19908;-73
2022/07/12 08:26:49;;;;;;;;;;;24.60;51.20;;;;;;5077583;28;19959;-73
2022/07/12 08:29:14;;;;;;;;;;;24.60;50.90;;;;;;5076893;28;19913;-73
2022/07/12 08:31:40;;;;;;;;;;;24.70;50.90;;;;;;5076568;28;19908;-73
2022/07/12 08:34:06;;;;;;;;;;;24.70;51.00;;;;;;5076414;28;19909;-74
2022/07/12 08:36:31;;;;;;;;;;;24.70;50.20;;;;;;5058419;28;20010;-74
2022/07/12 08:38:57;;;;;;;;;;;24.70;50.50;;;;;;5076154;28;19921;-74
2022/07/12 08:41:22;;;;;;;;;;;24.80;50.40;;;;;;5076187;28;19908;-73
2022/07/12 08:43:48;;;;;;;;;;;24.90;50.10;;;;;;5058085;28;19909;-74
2022/07/12 08:46:14;;;;;;;;;;;24.90;48.10;;;;;;5075041;28;19916;-74
2022/07/12 08:48:40;;;;;;;;;;;25.00;49.50;;;;;;5076176;28;20338;-73
2022/07/12 08:51:07;;;;;;;;;;;25.00;50.00;;;;;;5076858;28;19959;-74
2022/07/12 08:53:33;;;;;;;;;;;25.00;49.60;;;;;;5075974;28;19908;-73
2022/07/12 08:55:59;;;;;;;;;;;25.00;48.30;;;;;;5075846;28;20321;-74
2022/07/12 08:58:24;;;;;;;;;;;25.00;49.50;;;;;;5075931;28;19931;-74
2022/07/12 09:00:50;;;;;;;;;;;25.10;49.70;;;;;;5075600;28;19908;-76
2022/07/12 09:03:16;;;;;;;;;;;25.10;49.50;;;;;;5057647;28;19985;-75
2022/07/12 09:05:59;;;;;;;;;;;25.10;48.90;;;;;;5076062;28;19909;-74
2022/07/12 09:08:30;;;;;;;;;;;25.20;49.60;;;;;;5058180;28;19958;-74
2022/07/12 09:10:57;;;;;;;;;;;25.20;49.20;;;;;;5058068;28;19984;-74
2022/07/12 09:13:42;;;;;;;;;;;25.20;49.00;;;;;;5057512;28;19916;-74
2022/07/12 09:16:17;;;;;;;;;;;25.20;48.60;;;;;;5075697;28;19913;-74
2022/07/12 09:18:44;;;;;;;;;;;25.20;49.10;;;;;;5075345;28;20377;-73
2022/07/12 09:21:10;;;;;;;;;;;25.20;48.80;;;;;;5057437;28;19913;-73
2022/07/12 09:23:35;;;;;;;;;;;25.30;49.00;;;;;;5075168;28;20038;-74
2022/07/12 09:26:07;;;;;;;;;;;25.30;48.70;;;;;;5056937;28;19912;-74
2022/07/12 09:28:33;;;;;;;;;;;25.40;49.00;;;;;;5058024;28;19920;-73
2022/07/12 09:30:58;;;;;;;;;;;25.40;48.60;;;;;;5057608;28;19908;-73
2022/07/12 09:36:24;;;;;;;;;;;25.40;48.10;;;;;;5013149;28;20367;-74
2022/07/12 09:38:54;;;;;;;;;;;25.40;47.90;;;;;;5061682;28;20067;-72
2022/07/12 09:41:23;;;;;;;;;;;25.40;47.90;;;;;;5074906;28;19919;-73
2022/07/12 09:43:50;;;;;;;;;;;25.40;47.80;;;;;;5073986;28;21617;-74
2022/07/12 09:46:16;;;;;;;;;;;25.40;48.10;;;;;;5057165;28;19923;-73
2022/07/12 09:48:42;;;;;;;;;;;25.50;47.50;;;;;;5074698;28;19920;-73
2022/07/12 09:51:09;;;;;;;;;;;25.50;47.00;;;;;;5074418;28;19908;-74
2022/07/12 09:53:44;;;;;;;;;;;25.50;47.70;;;;;;5074689;28;19909;-74
2022/07/12 09:56:11;;;;;;;;;;;25.50;47.80;;;;;;5074416;28;20395;-74
2022/07/12 09:58:43;;;;;;;;;;;25.50;48.00;;;;;;5074516;28;20267;-73
2022/07/12 10:01:09;;;;;;;;;;;25.60;47.80;;;;;;5074744;28;20420;-73
2022/07/12 10:03:36;;;;;;;;;;;25.50;46.80;;;;;;5075464;28;19908;-76
2022/07/12 10:06:05;;;;;;;;;;;25.50;47.30;;;;;;5074971;28;19967;-73
2022/07/12 10:08:33;;;;;;;;;;;25.50;47.80;;;;;;5057251;28;20313;-74
2022/07/12 10:10:59;;;;;;;;;;;25.50;46.70;;;;;;5074617;28;19915;-74
2022/07/12 10:13:24;;;;;;;;;;;25.60;47.10;;;;;;5074286;28;19913;-73
2022/07/12 10:15:50;;;;;;;;;;;25.70;46.80;;;;;;5074735;28;19961;-73
2022/07/12 10:18:17;;;;;;;;;;;25.80;47.50;;;;;;5056047;28;20074;-74
2022/07/12 10:20:44;;;;;;;;;;;25.80;47.00;;;;;;5056974;28;19909;-73
2022/07/12 10:23:30;;;;;;;;;;;25.80;46.80;;;;;;5074134;28;20382;-75
2022/07/12 10:25:55;;;;;;;;;;;25.90;47.00;;;;;;5074289;28;19916;-72
2022/07/12 10:28:21;;;;;;;;;;;26.00;46.70;;;;;;5056230;28;19913;-75
2022/07/12 10:30:47;;;;;;;;;;;25.90;45.90;;;;;;5073975;28;19915;-73
2022/07/12 10:33:20;;;;;;;;;;;26.00;46.50;;;;;;5074238;28;19916;-74
2022/07/12 10:35:59;;;;;;;;;;;26.00;46.30;;;;;;5074209;28;20366;-74
2022/07/12 10:38:25;;;;;;;;;;;26.00;46.20;;;;;;5051940;28;19920;-73
2022/07/12 10:40:51;;;;;;;;;;;26.10;45.90;;;;;;5036259;28;20047;-73
2022/07/12 10:43:18;;;;;;;;;;;26.10;45.50;;;;;;5036354;28;19909;-73
2022/07/12 10:45:44;;;;;;;;;;;26.10;45.50;;;;;;5054129;28;20383;-74
2022/07/12 10:48:12;;;;;;;;;;;26.10;45.60;;;;;;5054088;28;19931;-73
2022/07/12 10:50:55;;;;;;;;;;;26.10;45.50;;;;;;5054027;28;20380;-73
2022/07/12 10:53:23;;;;;;;;;;;26.10;45.90;;;;;;5053766;28;20369;-73
2022/07/12 10:56:04;;;;;;;;;;;26.10;44.00;;;;;;5053575;28;19913;-74
2022/07/12 10:58:34;;;;;;;;;;;26.10;45.70;;;;;;5053648;28;19919;-72
2022/07/12 11:01:04;;;;;;;;;;;26.10;45.90;;;;;;5053973;28;19912;-73
2022/07/12 11:03:30;;;;;;;;;;;26.10;45.90;;;;;;5035864;28;19912;-73
2022/07/12 11:06:03;;;;;;;;;;;26.10;45.50;;;;;;5035980;28;20351;-73
2022/07/12 11:08:29;;;;;;;;;;;26.20;45.90;;;;;;5035882;28;20528;-74
2022/07/12 11:10:55;;;;;;;;;;;26.20;45.90;;;;;;5039928;28;20422;-74
2022/07/12 11:13:23;;;;;;;;;;;26.20;45.40;;;;;;5057928;28;19908;-74
2022/07/12 11:15:56;;;;;;;;;;;26.30;45.90;;;;;;5040466;28;20402;-73
2022/07/12 11:18:31;;;;;;;;;;;26.30;45.50;;;;;;5057667;28;19947;-73
2022/07/12 11:20:57;;;;;;;;;;;26.20;45.80;;;;;;5039899;28;19912;-74
2022/07/12 11:23:24;;;;;;;;;;;26.40;45.50;;;;;;5057898;28;19951;-72
2022/07/12 11:25:50;;;;;;;;;;;26.50;45.50;;;;;;5039387;28;19963;-73
2022/07/12 11:28:17;;;;;;;;;;;26.50;45.50;;;;;;5057496;28;20338;-73
2022/07/12 11:30:47;;;;;;;;;;;26.50;45.30;;;;;;5057640;28;20024;-73
2022/07/12 11:33:13;;;;;;;;;;;26.50;44.50;;;;;;5057389;28;19909;-73
2022/07/12 11:35:39;;;;;;;;;;;26.60;45.20;;;;;;5057504;28;20383;-73
2022/07/12 11:38:04;;;;;;;;;;;26.60;45.00;;;;;;5058879;28;19909;-73
2022/07/12 11:40:30;;;;;;;;;;;26.70;45.00;;;;;;5077561;28;19915;-73
2022/07/12 11:42:58;;;;;;;;;;;26.70;44.70;;;;;;5059412;28;19912;-73
2022/07/12 11:45:24;;;;;;;;;;;26.70;45.20;;;;;;5059266;28;19912;-73
2022/07/12 11:47:50;;;;;;;;;;;26.80;45.20;;;;;;5077086;28;20010;-73
2022/07/12 11:50:17;;;;;;;;;;;26.80;45.00;;;;;;5077559;28;19964;-73
2022/07/12 11:52:43;;;;;;;;;;;26.90;45.10;;;;;;5076957;28;20496;-73
2022/07/12 11:55:09;;;;;;;;;;;27.00;44.10;;;;;;5059230;28;19955;-72
2022/07/12 11:57:34;;;;;;;;;;;26.90;44.80;;;;;;5076995;28;19998;-72
2022/07/12 12:00:19;;;;;;;;;;;26.90;44.70;;;;;;5076877;28;19908;-73
2022/07/12 12:02:44;;;;;;;;;;;26.90;44.40;;;;;;5077262;28;19912;-73
2022/07/12 12:05:11;;;;;;;;;;;26.90;44.10;;;;;;5042317;28;20305;-73
2022/07/12 12:07:36;;;;;;;;;;;27.00;44.40;;;;;;5076662;28;19966;-74
2022/07/12 12:10:06;;;;;;;;;;;27.00;44.50;;;;;;5076810;28;19916;-73
2022/07/12 12:12:47;;;;;;;;;;;27.00;44.60;;;;;;5058616;28;19908;-74
2022/07/12 12:15:15;;;;;;;;;;;27.00;44.20;;;;;;5077576;28;20042;-73
2022/07/12 12:17:45;;;;;;;;;;;27.00;44.20;;;;;;5059000;28;19912;-74
2022/07/12 12:20:12;;;;;;;;;;;27.00;44.40;;;;;;5057623;28;20021;-73
2022/07/12 12:22:38;;;;;;;;;;;27.00;44.40;;;;;;5076215;28;19909;-74
2022/07/12 12:25:04;;;;;;;;;;;27.00;44.10;;;;;;5058766;28;20370;-74
2022/07/12 12:27:31;;;;;;;;;;;27.00;44.50;;;;;;5076553;28;20348;-73
2022/07/12 12:30:07;;;;;;;;;;;27.00;44.50;;;;;;5058597;28;19913;-73
2022/07/12 12:32:47;;;;;;;;;;;27.00;44.30;;;;;;5058514;28;19908;-73
2022/07/12 12:35:15;;;;;;;;;;;27.00;43.50;;;;;;5076092;28;19915;-74
2022/07/12 12:37:47;;;;;;;;;;;27.00;44.10;;;;;;5076019;28;19909;-73
2022/07/12 12:40:18;;;;;;;;;;;27.00;43.70;;;;;;5056116;28;19975;-74
2022/07/12 12:42:43;;;;;;;;;;;27.00;43.40;;;;;;5038441;28;19909;-74
2022/07/12 12:45:16;;;;;;;;;;;27.00;44.10;;;;;;5056197;28;19916;-74
2022/07/12 12:47:55;;;;;;;;;;;27.10;43.60;;;;;;5038223;28;19920;-73
2022/07/12 12:50:37;;;;;;;;;;;27.10;43.80;;;;;;5055902;28;19999;-73
2022/07/12 12:53:22;;;;;;;;;;;27.10;44.00;;;;;;5038247;28;19931;-73
2022/07/12 12:55:49;;;;;;;;;;;27.20;43.20;;;;;;5038197;28;19975;-74
2022/07/12 12:58:15;;;;;;;;;;;27.40;43.80;;;;;;5056072;28;19916;-74
2022/07/12 13:00:42;;;;;;;;;;;27.40;43.40;;;;;;5055624;28;19909;-73
2022/07/12 13:03:08;;;;;;;;;;;27.50;43.70;;;;;;5038196;28;19915;-73
2022/07/12 13:05:34;;;;;;;;;;;27.50;43.00;;;;;;5037915;28;19915;-73
2022/07/12 13:07:59;;;;;;;;;;;27.60;43.10;;;;;;5037962;28;20298;-73
2022/07/12 13:10:25;;;;;;;;;;;27.60;42.50;;;;;;5055704;28;19913;-73
2022/07/12 13:12:51;;;;;;;;;;;27.60;43.50;;;;;;5055671;28;19915;-74
2022/07/12 13:15:17;;;;;;;;;;;27.80;42.70;;;;;;5055800;28;20382;-74
2022/07/12 13:17:43;;;;;;;;;;;27.80;41.00;;;;;;5037695;28;19963;-73
2022/07/12 13:20:09;;;;;;;;;;;27.90;42.30;;;;;;5037890;28;19999;-73
2022/07/12 13:22:34;;;;;;;;;;;27.90;41.80;;;;;;5055816;28;19967;-74
2022/07/12 13:25:00;;;;;;;;;;;27.90;42.20;;;;;;5037414;28;20307;-73
2022/07/12 13:27:26;;;;;;;;;;;28.00;42.10;;;;;;5055440;28;19919;-73
2022/07/12 13:29:52;;;;;;;;;;;28.00;41.90;;;;;;5055192;28;19913;-73
2022/07/12 13:32:18;;;;;;;;;;;28.00;42.10;;;;;;5054571;28;20012;-73
2022/07/12 13:34:47;;;;;;;;;;;27.90;41.90;;;;;;5055070;28;19909;-71
2022/07/12 13:37:13;;;;;;;;;;;27.90;41.80;;;;;;5037373;28;19916;-73
2022/07/12 13:42:22;;;;;;;;;;;28.20;41.90;;;;;;5075334;28;19987;-73
2022/07/12 13:44:48;;;;;;;;;;;28.30;41.70;;;;;;5074765;28;20354;-72
2022/07/12 13:47:13;;;;;;;;;;;28.40;41.80;;;;;;5074941;28;20270;-73
2022/07/12 13:49:39;;;;;;;;;;;28.40;41.60;;;;;;5074659;28;20333;-74
2022/07/12 13:52:05;;;;;;;;;;;28.50;40.60;;;;;;5075068;28;19908;-73
2022/07/12 13:54:30;;;;;;;;;;;28.50;40.80;;;;;;5056622;28;19909;-73
2022/07/12 13:56:56;;;;;;;;;;;28.40;40.80;;;;;;5056538;28;19958;-73
2022/07/12 13:59:21;;;;;;;;;;;28.30;41.40;;;;;;5074617;28;19969;-72
2022/07/12 14:01:47;;;;;;;;;;;28.20;41.30;;;;;;5056580;28;19954;-72
2022/07/12 14:04:13;;;;;;;;;;;27.90;41.00;;;;;;5074722;28;19923;-73
2022/07/12 14:06:38;;;;;;;;;;;28.00;41.40;;;;;;5074647;28;19939;-73
2022/07/12 14:09:04;;;;;;;;;;;27.90;41.60;;;;;;5074802;28;20346;-73
2022/07/12 14:11:29;;;;;;;;;;;28.00;41.90;;;;;;5074401;28;20286;-74
2022/07/12 14:13:55;;;;;;;;;;;28.20;42.30;;;;;;5056450;28;19956;-73
2022/07/12 14:16:21;;;;;;;;;;;28.40;41.60;;;;;;5074793;28;19961;-74
2022/07/12 14:18:47;;;;;;;;;;;29.00;42.40;;;;;;5074123;28;20309;-73
2022/07/12 14:21:12;;;;;;;;;;;29.70;42.10;;;;;;5073956;28;19948;-72